Terminal Aerodrome Forecast
Issued by NWS

Home | Current Version | Previous Version | Graphics & Text | Print | Product List | Glossary On
Versions: 1 2 3 4 5 6 7 8 9 10 11 12 13
000
FTUS43 KICT 091700
TAFCNU
TAF
KCNU 091731Z 0918/1018 VRB05KT P6SM SCT050 SCT120
     FM101000 14008KT P6SM VCTS SCT050 OVC090CB
     FM101400 14011G19KT P6SM SCT080 BKN150=

USA.gov is the U.S. government's official web portal to all federal, state and local government web resources and services.